createdAt,value
2023-02-11T00:01:17.261Z,44.45
2023-02-11T00:03:46.494Z,43.10
2023-02-11T00:06:14.574Z,43.33
2023-02-11T00:08:42.325Z,52.83
2023-02-11T00:11:14.435Z,49.65
2023-02-11T00:13:42.578Z,42.88
2023-02-11T00:16:11.991Z,45.72
2023-02-11T00:18:40.098Z,43.75
2023-02-11T00:21:10.676Z,45.17
2023-02-11T00:23:38.921Z,45.08
2023-02-11T00:26:13.372Z,45.60
2023-02-11T00:28:41.376Z,44.60
2023-02-11T00:31:09.274Z,46.97
2023-02-11T00:33:37.193Z,49.97
2023-02-11T00:36:06.479Z,47.78
2023-02-11T00:38:35.765Z,48.63
2023-02-11T00:41:03.510Z,42.88
2023-02-11T00:43:31.350Z,43.50
2023-02-11T00:45:59.074Z,49.38
2023-02-11T00:48:26.831Z,45.53
2023-02-11T00:50:55.001Z,42.47
2023-02-11T00:53:22.770Z,47.40
2023-02-11T00:55:53.013Z,42.60
2023-02-11T00:58:21.212Z,41.50
2023-02-11T01:00:49.065Z,51.88
2023-02-11T01:03:16.902Z,48.75
2023-02-11T01:05:44.728Z,51.08
2023-02-11T01:08:12.492Z,51.22
2023-02-11T01:10:40.204Z,46.28
2023-02-11T01:13:09.238Z,44.42
2023-02-11T01:15:37.008Z,49.80
2023-02-11T01:18:06.245Z,39.00
2023-02-11T01:20:34.043Z,44.30
2023-02-11T01:23:01.793Z,49.92
2023-02-11T01:25:29.549Z,49.45
2023-02-11T01:27:57.289Z,52.70
2023-02-11T01:30:26.524Z,45.50
2023-02-11T01:32:54.260Z,45.72
2023-02-11T01:35:22.038Z,46.20
2023-02-11T01:37:49.765Z,43.03
2023-02-11T01:40:18.642Z,41.30
2023-02-11T01:42:48.379Z,46.30
2023-02-11T01:45:57.541Z,44.08
2023-02-11T01:48:30.937Z,46.83
2023-02-11T01:51:05.079Z,46.90
2023-02-11T01:53:51.486Z,39.47
2023-02-11T01:56:38.781Z,48.88
2023-02-11T01:59:12.555Z,50.92
2023-02-11T02:01:43.305Z,43.03
2023-02-11T02:04:13.811Z,47.78
2023-02-11T02:06:46.785Z,57.95
2023-02-11T02:09:18.977Z,42.50
2023-02-11T02:11:46.735Z,50.13
2023-02-11T02:14:14.688Z,47.13
2023-02-11T02:16:42.435Z,56.40
2023-02-11T02:19:57.545Z,46.10
2023-02-11T02:23:08.214Z,49.03
2023-02-11T02:26:00.999Z,48.88
2023-02-11T02:28:49.413Z,43.85
2023-02-11T02:31:42.263Z,50.63
2023-02-11T02:34:16.749Z,46.33
2023-02-11T02:36:52.807Z,45.30
2023-02-11T02:39:26.114Z,46.95
2023-02-11T02:41:54.979Z,45.90
2023-02-11T02:44:22.781Z,56.03
2023-02-11T02:46:50.727Z,58.55
2023-02-11T02:49:19.767Z,55.85
2023-02-11T02:52:02.889Z,45.35
2023-02-11T02:54:53.887Z,45.05
2023-02-11T02:57:31.753Z,44.50
2023-02-11T03:00:15.598Z,50.97
2023-02-11T03:02:51.507Z,47.92
2023-02-11T03:05:26.886Z,49.97
2023-02-11T03:07:59.593Z,47.78
2023-02-11T03:10:31.045Z,45.85
2023-02-11T03:12:59.615Z,46.40
2023-02-11T03:15:30.763Z,43.83
2023-02-11T03:18:01.291Z,40.10
2023-02-11T03:20:33.870Z,48.25
2023-02-11T03:23:06.934Z,44.90
2023-02-11T03:25:42.309Z,50.30
2023-02-11T03:28:14.849Z,47.93
2023-02-11T03:30:48.053Z,45.20
2023-02-11T03:33:20.940Z,43.58
2023-02-11T03:35:54.354Z,47.70
2023-02-11T03:38:26.072Z,48.28
2023-02-11T03:40:56.571Z,45.60
2023-02-11T03:43:29.614Z,41.85
2023-02-11T03:45:58.777Z,44.13
2023-02-11T03:48:29.346Z,46.50
2023-02-11T03:51:01.086Z,51.25
2023-02-11T03:53:28.964Z,47.83
2023-02-11T03:56:01.064Z,48.05
2023-02-11T03:58:28.846Z,53.15
2023-02-11T04:00:56.653Z,44.47
2023-02-11T04:03:24.550Z,46.70
2023-02-11T04:05:52.588Z,44.67
2023-02-11T04:08:22.031Z,44.38
2023-02-11T04:10:49.807Z,44.72
2023-02-11T04:13:17.519Z,46.90
2023-02-11T04:15:47.811Z,45.55
2023-02-11T04:18:16.455Z,49.88
2023-02-11T04:20:44.254Z,44.65
2023-02-11T04:23:12.017Z,43.33
2023-02-11T04:25:41.094Z,45.08
2023-02-11T04:28:08.793Z,47.72
2023-02-11T04:30:36.797Z,47.50
2023-02-11T04:33:04.637Z,44.28
2023-02-11T04:35:32.390Z,46.15
2023-02-11T04:38:00.225Z,37.88
2023-02-11T04:40:28.236Z,42.95
2023-02-11T04:42:57.340Z,44.88
2023-02-11T04:45:25.273Z,45.35
2023-02-11T04:47:53.007Z,46.50
2023-02-11T04:50:20.855Z,48.22
2023-02-11T04:52:48.579Z,43.65
2023-02-11T04:55:16.355Z,49.17
2023-02-11T04:57:44.228Z,49.00
2023-02-11T05:00:15.077Z,46.45
2023-02-11T05:02:42.864Z,48.45
2023-02-11T05:05:10.595Z,48.83
2023-02-11T05:07:38.320Z,45.42
2023-02-11T05:10:06.338Z,50.13
2023-02-11T05:12:34.062Z,49.50
2023-02-11T05:15:01.752Z,39.60
2023-02-11T05:17:30.818Z,41.60
2023-02-11T05:19:58.537Z,38.38
2023-02-11T05:22:26.261Z,47.72
2023-02-11T05:24:54.363Z,47.85
2023-02-11T05:27:22.127Z,48.28
2023-02-11T05:29:49.886Z,43.20
2023-02-11T05:32:17.631Z,47.40
2023-02-11T05:34:46.922Z,52.53
2023-02-11T05:37:15.066Z,42.03
2023-02-11T05:39:42.945Z,42.35
2023-02-11T05:42:10.731Z,45.13
2023-02-11T05:44:38.894Z,52.25
2023-02-11T05:47:08.476Z,48.55
2023-02-11T05:49:36.480Z,48.15
2023-02-11T05:52:05.890Z,48.67
2023-02-11T05:54:33.656Z,44.38
2023-02-11T05:57:01.381Z,39.03
2023-02-11T05:59:29.099Z,50.83
2023-02-11T06:01:56.874Z,45.08
2023-02-11T06:04:24.565Z,42.42
2023-02-11T06:06:52.290Z,43.75
2023-02-11T06:09:21.438Z,46.45
2023-02-11T06:11:49.297Z,43.72
2023-02-11T06:14:17.037Z,39.55
2023-02-11T06:16:45.339Z,49.72
2023-02-11T06:19:13.513Z,48.38
2023-02-11T06:21:44.158Z,44.42
2023-02-11T06:24:12.321Z,41.70
2023-02-11T06:26:41.440Z,46.40
2023-02-11T06:29:09.247Z,47.90
2023-02-11T06:31:38.828Z,45.85
2023-02-11T06:34:06.900Z,49.53
2023-02-11T06:36:34.571Z,42.88
2023-02-11T06:39:02.265Z,41.92
2023-02-11T06:41:30.027Z,41.60
2023-02-11T06:43:59.189Z,42.53
2023-02-11T06:46:26.934Z,44.10
2023-02-11T06:48:54.728Z,47.25
2023-02-11T06:51:23.084Z,45.78
2023-02-11T06:53:50.849Z,42.88
2023-02-11T06:56:20.453Z,40.63
2023-02-11T06:58:48.580Z,45.50
2023-02-11T07:01:18.114Z,43.92
2023-02-11T07:03:46.818Z,45.47
2023-02-11T07:06:16.568Z,40.50
2023-02-11T07:08:45.889Z,46.35
2023-02-11T07:11:15.445Z,38.78
2023-02-11T07:13:44.045Z,42.10
2023-02-11T07:16:15.037Z,45.53
2023-02-11T07:18:44.938Z,38.13
2023-02-11T07:21:15.188Z,46.25
2023-02-11T07:23:43.225Z,48.95
2023-02-11T07:26:14.328Z,35.05
2023-02-11T07:28:43.002Z,41.08
2023-02-11T07:31:13.080Z,41.75
2023-02-11T07:33:40.962Z,40.55
2023-02-11T07:36:11.634Z,42.13
2023-02-11T07:38:40.250Z,39.15
2023-02-11T07:41:10.704Z,48.58
2023-02-11T07:43:39.426Z,38.13
2023-02-11T07:46:08.947Z,56.13
2023-02-11T07:48:36.791Z,41.03
2023-02-11T07:51:11.674Z,35.75
2023-02-11T07:53:39.836Z,43.05
2023-02-11T07:56:09.221Z,38.88
2023-02-11T07:58:37.321Z,40.00
2023-02-11T08:01:06.092Z,46.20
2023-02-11T08:03:35.081Z,42.30
2023-02-11T08:06:05.337Z,40.28
2023-02-11T08:08:34.639Z,40.75
2023-02-11T08:11:07.714Z,37.08
2023-02-11T08:13:35.688Z,38.03
2023-02-11T08:16:04.411Z,41.08
2023-02-11T08:18:32.454Z,33.78
2023-02-11T08:21:05.817Z,36.95
2023-02-11T08:23:37.542Z,34.60
2023-02-11T08:26:06.406Z,38.55
2023-02-11T08:28:37.158Z,34.35
2023-02-11T08:31:07.144Z,39.25
2023-02-11T08:33:35.308Z,31.00
2023-02-11T08:36:08.464Z,33.65
2023-02-11T08:38:37.807Z,33.50
2023-02-11T08:41:06.049Z,33.97
2023-02-11T08:43:34.218Z,35.78
2023-02-11T08:46:02.630Z,37.28
2023-02-11T08:48:31.384Z,35.47
2023-02-11T08:50:59.179Z,40.70
2023-02-11T08:53:27.059Z,37.10
2023-02-11T08:55:57.967Z,35.15
2023-02-11T08:58:25.670Z,36.70
2023-02-11T09:00:55.302Z,40.75
2023-02-11T09:03:24.540Z,35.97
2023-02-11T09:05:55.273Z,36.65
2023-02-11T09:08:24.713Z,37.63
2023-02-11T09:10:54.425Z,36.60
2023-02-11T09:13:25.750Z,35.85
2023-02-11T09:15:55.491Z,30.08
2023-02-11T09:18:25.466Z,33.00
2023-02-11T09:20:54.962Z,35.72
2023-02-11T09:23:24.561Z,32.03
2023-02-11T09:25:54.286Z,34.35
2023-02-11T09:28:25.493Z,36.75
2023-02-11T09:30:55.611Z,32.67
2023-02-11T09:33:25.596Z,36.95
2023-02-11T09:35:55.923Z,31.65
2023-02-11T09:38:25.674Z,34.90
2023-02-11T09:40:55.651Z,32.53
2023-02-11T09:43:35.050Z,30.70
2023-02-11T09:46:05.471Z,27.33
2023-02-11T09:48:42.735Z,30.63
2023-02-11T09:51:20.370Z,36.53
2023-02-11T09:53:53.555Z,35.60
2023-02-11T09:56:23.187Z,40.42
2023-02-11T09:58:52.360Z,30.17
2023-02-11T10:01:31.657Z,32.63
2023-02-11T10:04:08.356Z,30.65
2023-02-11T10:06:46.341Z,34.67
2023-02-11T10:09:34.614Z,31.40
2023-02-11T10:12:19.313Z,28.27
2023-02-11T10:15:13.380Z,33.22
2023-02-11T10:17:54.012Z,27.58
2023-02-11T10:20:29.485Z,28.70
2023-02-11T10:23:01.649Z,28.50
2023-02-11T10:25:35.362Z,31.05
2023-02-11T10:28:13.108Z,33.00
2023-02-11T10:30:47.505Z,29.35
2023-02-11T10:33:24.376Z,31.98
2023-02-11T10:35:52.139Z,36.08
2023-02-11T10:38:19.974Z,28.45
2023-02-11T10:40:47.777Z,31.95
2023-02-11T10:43:17.858Z,27.60
2023-02-11T10:45:50.072Z,36.58
2023-02-11T10:48:40.685Z,29.10
2023-02-11T10:51:14.797Z,31.00
2023-02-11T10:53:42.919Z,28.05
2023-02-11T10:56:15.234Z,31.83
2023-02-11T10:58:46.762Z,28.67
2023-02-11T11:01:24.487Z,29.33
2023-02-11T11:03:53.844Z,29.88
2023-02-11T11:06:31.975Z,28.88
2023-02-11T11:09:00.032Z,26.52
2023-02-11T11:11:28.318Z,40.22
2023-02-11T11:13:59.139Z,26.60
2023-02-11T11:16:29.686Z,31.85
2023-02-11T11:19:16.471Z,29.10
2023-02-11T11:21:45.919Z,27.08
2023-02-11T11:24:20.545Z,25.42
2023-02-11T11:26:51.286Z,24.77
2023-02-11T11:29:21.314Z,26.70
2023-02-11T11:31:52.913Z,25.17
2023-02-11T11:34:28.066Z,27.20
2023-02-11T11:36:57.124Z,27.00
2023-02-11T11:39:28.285Z,25.90
2023-02-11T11:41:58.452Z,24.63
2023-02-11T11:44:30.031Z,22.75
2023-02-11T11:47:30.446Z,23.58
2023-02-11T11:50:15.341Z,26.17
2023-02-11T11:52:48.872Z,23.77
2023-02-11T11:55:21.520Z,22.58
2023-02-11T11:57:49.954Z,39.55
2023-02-11T12:00:20.881Z,23.67
2023-02-11T12:03:10.845Z,24.27
2023-02-11T12:05:47.876Z,25.92
2023-02-11T12:08:25.033Z,22.25
2023-02-11T12:11:03.685Z,24.25
2023-02-11T12:13:43.291Z,31.00
2023-02-11T12:16:21.311Z,22.52
2023-02-11T12:19:15.385Z,28.75
2023-02-11T12:21:57.119Z,25.05
2023-02-11T12:24:41.770Z,28.13
2023-02-11T12:27:16.769Z,29.98
2023-02-11T12:29:56.351Z,25.05
2023-02-11T12:32:33.983Z,23.10
2023-02-11T12:35:28.257Z,23.13
2023-02-11T12:38:23.160Z,26.30
2023-02-11T12:40:59.942Z,24.63
2023-02-11T12:43:35.842Z,25.45
2023-02-11T12:46:25.705Z,21.98
2023-02-11T12:49:25.570Z,23.17
2023-02-11T12:52:05.974Z,28.08
2023-02-11T12:54:41.173Z,24.85
2023-02-11T12:57:16.871Z,24.10
2023-02-11T12:59:55.464Z,26.27
2023-02-11T13:02:34.080Z,25.58
2023-02-11T13:05:13.304Z,27.65
2023-02-11T13:07:46.116Z,33.75
2023-02-11T13:10:27.014Z,30.70
2023-02-11T13:13:13.602Z,28.77
2023-02-11T13:15:43.691Z,29.02
2023-02-11T13:18:25.399Z,27.52
2023-02-11T13:21:00.589Z,27.42
2023-02-11T13:23:40.186Z,28.20
2023-02-11T13:26:13.990Z,31.45
2023-02-11T13:28:47.708Z,26.83
2023-02-11T13:31:16.722Z,27.90
2023-02-11T13:33:45.719Z,27.77
2023-02-11T13:36:25.319Z,29.58
2023-02-11T13:39:06.334Z,30.65
2023-02-11T13:41:40.293Z,31.17
2023-02-11T13:44:23.130Z,27.60
2023-02-11T13:46:55.558Z,36.47
2023-02-11T13:49:26.641Z,30.88
2023-02-11T13:51:56.155Z,30.90
2023-02-11T13:54:30.888Z,28.88
2023-02-11T13:57:22.433Z,32.17
2023-02-11T13:59:52.184Z,38.95
2023-02-11T14:02:44.268Z,53.33
2023-02-11T14:05:46.447Z,70.97
2023-02-11T14:08:37.567Z,81.28
2023-02-11T14:11:23.693Z,46.08
2023-02-11T14:14:16.502Z,38.28
2023-02-11T14:17:23.480Z,30.98
2023-02-11T14:19:51.750Z,34.65
2023-02-11T14:22:25.840Z,35.13
2023-02-11T14:24:56.864Z,30.75
2023-02-11T14:27:43.724Z,27.20
2023-02-11T14:30:36.881Z,29.25
2023-02-11T14:33:19.285Z,26.75
2023-02-11T14:36:00.006Z,27.48
2023-02-11T14:38:36.068Z,28.80
2023-02-11T14:43:39.859Z,29.23
2023-02-11T14:46:08.290Z,27.38
2023-02-11T14:48:38.504Z,25.60
2023-02-11T14:51:10.346Z,21.77
2023-02-11T14:53:41.774Z,22.60
2023-02-11T14:56:20.149Z,21.08
2023-02-11T14:58:51.623Z,19.35
2023-02-11T15:01:32.102Z,23.25
2023-02-11T15:04:01.108Z,26.60
2023-02-11T15:06:31.769Z,21.38
2023-02-11T15:09:02.203Z,19.58
2023-02-11T15:11:33.013Z,23.23
2023-02-11T15:14:09.762Z,22.63
2023-02-11T15:16:43.736Z,20.05
2023-02-11T15:19:21.332Z,21.77
2023-02-11T15:21:50.640Z,28.58
2023-02-11T15:24:27.602Z,23.45
2023-02-11T15:27:00.296Z,24.73
2023-02-11T15:29:35.793Z,21.00
2023-02-11T15:32:12.532Z,20.80
2023-02-11T15:34:40.496Z,22.10
2023-02-11T15:37:08.634Z,20.40
2023-02-11T15:39:40.972Z,25.88
2023-02-11T15:42:23.416Z,23.58
2023-02-11T15:45:12.334Z,24.23
2023-02-11T15:47:41.839Z,29.67
2023-02-11T15:50:22.122Z,27.48
2023-02-11T15:52:50.753Z,24.73
2023-02-11T15:55:19.825Z,26.13
2023-02-11T15:57:54.103Z,27.00
2023-02-11T16:00:26.404Z,25.73
2023-02-11T16:02:54.723Z,30.48
2023-02-11T16:05:31.367Z,30.95
2023-02-11T16:07:59.968Z,33.60
2023-02-11T16:10:31.178Z,32.25
2023-02-11T16:13:19.481Z,30.48
2023-02-11T16:15:52.226Z,33.28
2023-02-11T16:18:37.931Z,30.58
2023-02-11T16:21:08.543Z,28.65
2023-02-11T16:23:38.642Z,29.33
2023-02-11T16:26:10.854Z,37.30
2023-02-11T16:28:39.113Z,31.65
2023-02-11T16:31:09.572Z,29.75
2023-02-11T16:33:37.410Z,26.73
2023-02-11T16:36:13.047Z,28.67
2023-02-11T16:38:41.180Z,32.05
2023-02-11T16:41:11.702Z,33.25
2023-02-11T16:43:39.847Z,31.58
2023-02-11T16:46:09.691Z,31.80
2023-02-11T16:48:38.879Z,29.02
2023-02-11T16:51:09.102Z,34.85
2023-02-11T16:53:36.872Z,36.95
2023-02-11T16:56:04.912Z,33.05
2023-02-11T16:58:32.665Z,37.10
2023-02-11T17:01:00.630Z,29.90
2023-02-11T17:03:30.240Z,37.63
2023-02-11T17:05:58.504Z,33.15
2023-02-11T17:08:26.257Z,36.13
2023-02-11T17:10:54.366Z,38.50
2023-02-11T17:13:22.417Z,46.83
2023-02-11T17:15:50.947Z,41.50
2023-02-11T17:18:19.046Z,36.78
2023-02-11T17:20:48.192Z,43.55
2023-02-11T17:23:16.251Z,45.45
2023-02-11T17:25:43.982Z,40.50
2023-02-11T17:28:12.164Z,39.33
2023-02-11T17:30:42.050Z,30.27
2023-02-11T17:33:09.848Z,37.22
2023-02-11T17:35:40.851Z,31.35
2023-02-11T17:38:10.003Z,33.05
2023-02-11T17:40:37.852Z,31.27
2023-02-11T17:43:05.832Z,32.67
2023-02-11T17:45:33.539Z,31.85
2023-02-11T17:48:01.411Z,35.40
2023-02-11T17:50:29.600Z,37.13
2023-02-11T17:52:57.896Z,36.40
2023-02-11T17:55:27.148Z,42.78
2023-02-11T17:57:55.444Z,48.03
2023-02-11T18:00:23.692Z,40.85
2023-02-11T18:02:51.418Z,32.75
2023-02-11T18:05:19.299Z,33.35
2023-02-11T18:07:47.891Z,34.72
2023-02-11T18:10:15.849Z,52.45
2023-02-11T18:12:45.056Z,44.78
2023-02-11T18:15:13.433Z,36.67
2023-02-11T18:17:41.143Z,39.10
2023-02-11T18:20:10.001Z,34.10
2023-02-11T18:22:40.038Z,28.27
2023-02-11T18:25:09.223Z,34.47
2023-02-11T18:27:37.190Z,31.70
2023-02-11T18:30:08.106Z,38.40
2023-02-11T18:32:36.264Z,31.33
2023-02-11T18:35:04.230Z,29.98
2023-02-11T18:37:31.913Z,33.08
2023-02-11T18:39:59.793Z,30.23
2023-02-11T18:42:27.982Z,30.15
2023-02-11T18:44:55.788Z,43.40
2023-02-11T18:47:24.960Z,52.13
2023-02-11T18:49:52.745Z,40.85
2023-02-11T18:52:20.477Z,38.42
2023-02-11T18:54:51.310Z,39.67
2023-02-11T18:57:19.002Z,42.22
2023-02-11T18:59:46.967Z,32.90
2023-02-11T19:02:14.870Z,32.22
2023-02-11T19:04:44.557Z,36.05
2023-02-11T19:07:12.447Z,36.30
2023-02-11T19:09:40.229Z,34.95
2023-02-11T19:12:08.596Z,31.23
2023-02-11T19:14:36.886Z,37.17
2023-02-11T19:17:08.017Z,38.67
2023-02-11T19:19:36.922Z,39.35
2023-02-11T19:22:10.302Z,36.95
2023-02-11T19:24:38.854Z,39.65
2023-02-11T19:27:06.698Z,43.20
2023-02-11T19:29:35.133Z,45.75
2023-02-11T19:32:03.623Z,63.85
2023-02-11T19:34:31.505Z,52.70
2023-02-11T19:37:00.719Z,52.00
2023-02-11T19:39:29.860Z,62.40
2023-02-11T19:41:57.695Z,62.30
2023-02-11T19:44:25.628Z,55.20
2023-02-11T19:46:54.615Z,52.67
2023-02-11T19:49:25.779Z,44.85
2023-02-11T19:51:55.287Z,46.95
2023-02-11T19:54:23.326Z,52.85
2023-02-11T19:56:52.484Z,44.97
2023-02-11T19:59:20.994Z,49.63
2023-02-11T20:01:49.149Z,43.15
2023-02-11T20:04:17.850Z,53.15
2023-02-11T20:06:48.006Z,51.05
2023-02-11T20:09:16.351Z,51.95
2023-02-11T20:11:44.304Z,46.90
2023-02-11T20:14:15.598Z,43.83
2023-02-11T20:16:49.149Z,44.58
2023-02-11T20:19:18.779Z,41.25
2023-02-11T20:21:48.146Z,35.40
2023-02-11T20:24:16.302Z,37.58
2023-02-11T20:26:45.113Z,41.65
2023-02-11T20:29:15.215Z,39.28
2023-02-11T20:31:43.741Z,42.85
2023-02-11T20:34:12.054Z,42.03
2023-02-11T20:36:40.514Z,44.28
2023-02-11T20:39:08.919Z,36.58
2023-02-11T20:41:39.587Z,38.78
2023-02-11T20:44:09.061Z,42.67
2023-02-11T20:46:39.860Z,40.88
2023-02-11T20:49:08.661Z,43.92
2023-02-11T20:51:37.219Z,38.08
2023-02-11T20:54:06.083Z,35.60
2023-02-11T20:56:36.605Z,38.55
2023-02-11T20:59:05.665Z,37.05
2023-02-11T21:01:35.680Z,34.13
2023-02-11T21:04:06.978Z,34.33
2023-02-11T21:06:36.883Z,33.80
2023-02-11T21:09:05.848Z,36.50
2023-02-11T21:11:33.711Z,39.40
2023-02-11T21:14:01.807Z,34.30
2023-02-11T21:16:29.994Z,35.70
2023-02-11T21:18:57.854Z,44.50
2023-02-11T21:21:27.656Z,36.65
2023-02-11T21:23:56.100Z,31.17
2023-02-11T21:26:24.263Z,33.25
2023-02-11T21:28:52.901Z,42.85
2023-02-11T21:31:23.128Z,33.97
2023-02-11T21:33:51.859Z,36.90
2023-02-11T21:36:20.266Z,39.13
2023-02-11T21:38:49.816Z,39.00
2023-02-11T21:41:18.347Z,34.08
2023-02-11T21:43:46.131Z,34.22
2023-02-11T21:46:15.816Z,32.15
2023-02-11T21:48:43.703Z,37.08
2023-02-11T21:51:16.290Z,32.78
2023-02-11T21:53:44.156Z,31.08
2023-02-11T21:56:16.276Z,36.75
2023-02-11T21:58:44.383Z,30.40
2023-02-11T22:01:14.322Z,33.58
2023-02-11T22:03:43.174Z,32.72
2023-02-11T22:06:12.193Z,35.90
2023-02-11T22:08:40.323Z,30.05
2023-02-11T22:11:10.245Z,30.85
2023-02-11T22:13:39.874Z,27.70
2023-02-11T22:16:10.540Z,22.95
2023-02-11T22:18:38.685Z,27.27
2023-02-11T22:21:08.729Z,26.00
2023-02-11T22:23:37.746Z,25.33
2023-02-11T22:26:07.568Z,30.77
2023-02-11T22:28:38.721Z,26.60
2023-02-11T22:31:09.329Z,22.20
2023-02-11T22:33:37.122Z,27.58
2023-02-11T22:36:07.630Z,27.20
2023-02-11T22:38:35.957Z,28.00
2023-02-11T22:41:08.058Z,27.90
2023-02-11T22:43:35.930Z,27.15
2023-02-11T22:46:05.663Z,26.98
2023-02-11T22:48:35.973Z,26.10
2023-02-11T22:51:07.526Z,25.85
2023-02-11T22:53:35.440Z,27.80
2023-02-11T22:56:05.128Z,26.35
2023-02-11T22:58:33.075Z,25.95
2023-02-11T23:01:00.834Z,25.23
2023-02-11T23:03:29.103Z,23.48
2023-02-11T23:05:59.684Z,25.98
2023-02-11T23:08:29.115Z,30.48
2023-02-11T23:10:57.332Z,26.02
2023-02-11T23:13:25.086Z,28.30
2023-02-11T23:15:53.125Z,35.53
2023-02-11T23:18:20.985Z,30.63
2023-02-11T23:20:48.856Z,27.67
2023-02-11T23:23:18.067Z,31.02
2023-02-11T23:25:48.142Z,34.67
2023-02-11T23:28:15.868Z,29.55
2023-02-11T23:30:44.021Z,31.88
2023-02-11T23:33:11.785Z,29.60
2023-02-11T23:35:39.445Z,32.72
2023-02-11T23:38:07.184Z,31.65
2023-02-11T23:40:36.358Z,32.08
2023-02-11T23:43:04.326Z,31.05
2023-02-11T23:45:32.265Z,32.22
2023-02-11T23:48:00.164Z,34.33
2023-02-11T23:50:27.898Z,33.80
2023-02-11T23:52:55.577Z,32.83
2023-02-11T23:55:23.271Z,38.17
2023-02-11T23:57:52.349Z,32.90
